Time;durP1;ratioP1;P1;durP2;ratioP2;P2;SDS_P1;SDS_P2;PMS_P1;PMS_P2;Temp;Humidity;BMP_temperature;BMP_pressure;BME280_temperature;BME280_humidity;BME280_pressure;Samples;Min_cycle;Max_cycle;Signal;HPM_P1;HPM_P2
2021/04/30 00:01:02;;;;;;;8.57;7.50;;;11.50;48.90;;;;;;5051840;28;20749;-54
2021/04/30 00:03:29;;;;;;;8.30;7.50;;;11.50;48.80;;;;;;5053823;28;20699;-54
2021/04/30 00:05:56;;;;;;;8.60;7.80;;;11.50;48.80;;;;;;5050019;28;21211;-54
2021/04/30 00:08:23;;;;;;;7.90;7.27;;;11.50;48.90;;;;;;5049825;28;20649;-54
2021/04/30 00:10:50;;;;;;;8.93;7.93;;;11.50;49.00;;;;;;5054154;28;21268;-53
2021/04/30 00:13:17;;;;;;;10.00;7.43;;;11.50;49.10;;;;;;5052543;28;21194;-54
2021/04/30 00:15:45;;;;;;;7.87;7.17;;;11.50;49.20;;;;;;5054001;28;20690;-54
2021/04/30 00:18:12;;;;;;;9.50;8.70;;;11.40;49.20;;;;;;5053574;28;20650;-54
2021/04/30 00:20:41;;;;;;;9.87;8.87;;;11.40;49.30;;;;;;5053520;28;20830;-54
2021/04/30 00:23:12;;;;;;;8.60;7.80;;;11.40;49.60;;;;;;5052705;28;20630;-55
2021/04/30 00:25:39;;;;;;;9.60;8.80;;;11.30;49.70;;;;;;5054309;28;21190;-54
2021/04/30 00:28:06;;;;;;;10.10;9.10;;;11.30;49.70;;;;;;5053247;28;20653;-54
2021/04/30 00:30:33;;;;;;;10.30;8.60;;;11.30;49.90;;;;;;5053662;28;20703;-54
2021/04/30 00:33:00;;;;;;;10.57;9.67;;;11.20;49.90;;;;;;5067213;28;20679;-54
2021/04/30 00:35:27;;;;;;;9.70;8.90;;;11.20;50.20;;;;;;5053901;28;20662;-54
2021/04/30 00:37:53;;;;;;;9.40;8.50;;;11.20;50.20;;;;;;5053495;28;21175;-54
2021/04/30 00:40:20;;;;;;;9.60;8.80;;;11.20;50.30;;;;;;5053278;28;20630;-55
2021/04/30 00:42:47;;;;;;;9.20;8.30;;;11.20;50.30;;;;;;5053623;28;20630;-54
2021/04/30 00:45:18;;;;;;;9.70;8.70;;;11.20;50.50;;;;;;5052857;28;20662;-55
2021/04/30 00:47:46;;;;;;;8.93;8.17;;;11.20;50.50;;;;;;5044002;28;21061;-55
2021/04/30 00:50:13;;;;;;;9.20;8.40;;;11.10;50.60;;;;;;5033892;28;21234;-55
2021/04/30 00:52:40;;;;;;;9.53;8.50;;;11.20;50.50;;;;;;5033892;28;20891;-54
2021/04/30 00:55:08;;;;;;;9.57;8.77;;;11.20;50.60;;;;;;5038977;28;20630;-54
2021/04/30 00:57:35;;;;;;;9.73;8.73;;;11.10;50.90;;;;;;5053705;28;20670;-54
2021/04/30 01:00:02;;;;;;;9.40;8.50;;;11.20;51.60;;;;;;5045930;28;21180;-54
2021/04/30 01:02:29;;;;;;;9.13;8.33;;;11.10;51.40;;;;;;5025196;28;20648;-54
2021/04/30 01:04:57;;;;;;;9.60;8.70;;;11.00;52.00;;;;;;5021253;28;20634;-54
2021/04/30 01:07:24;;;;;;;9.30;8.30;;;11.00;51.80;;;;;;5033168;28;20712;-54
2021/04/30 01:09:51;;;;;;;8.97;8.17;;;11.00;52.40;;;;;;5033481;28;20700;-54
2021/04/30 01:12:18;;;;;;;9.73;8.80;;;11.00;52.20;;;;;;5033255;28;20654;-54
2021/04/30 01:14:44;;;;;;;9.30;8.40;;;11.00;53.10;;;;;;5033238;28;20685;-55
2021/04/30 01:17:11;;;;;;;11.23;8.80;;;11.00;52.70;;;;;;5027490;28;21067;-54
2021/04/30 01:19:39;;;;;;;10.47;9.57;;;11.00;52.10;;;;;;5025930;28;20695;-55
2021/04/30 01:22:06;;;;;;;10.20;8.80;;;11.00;52.10;;;;;;5013354;28;20722;-54
2021/04/30 01:24:33;;;;;;;8.73;7.73;;;11.00;52.10;;;;;;5051397;28;20625;-55
2021/04/30 01:27:00;;;;;;;9.47;8.57;;;10.90;52.20;;;;;;5053011;28;20654;-55
2021/04/30 01:29:27;;;;;;;15.83;9.97;;;10.80;52.40;;;;;;5049696;28;20626;-55
2021/04/30 01:31:53;;;;;;;9.00;8.10;;;10.80;52.40;;;;;;5020564;28;20620;-54
2021/04/30 01:34:20;;;;;;;11.87;10.77;;;10.80;52.90;;;;;;5012813;28;21205;-55
2021/04/30 01:36:47;;;;;;;11.33;10.33;;;10.80;52.80;;;;;;4995450;28;20667;-55
2021/04/30 01:39:14;;;;;;;13.00;10.27;;;10.70;52.60;;;;;;5012452;28;20632;-54
2021/04/30 01:41:42;;;;;;;11.30;10.30;;;10.70;52.90;;;;;;5012669;28;20652;-55
2021/04/30 01:44:09;;;;;;;10.57;9.47;;;10.70;52.90;;;;;;5027668;28;20630;-54
2021/04/30 01:46:35;;;;;;;10.67;9.67;;;10.70;52.80;;;;;;5038244;28;20651;-55
2021/04/30 01:49:02;;;;;;;10.87;9.50;;;10.60;52.90;;;;;;5015081;28;20678;-55
2021/04/30 01:51:29;;;;;;;9.70;8.80;;;10.60;53.00;;;;;;5012654;28;20620;-55
2021/04/30 01:53:56;;;;;;;10.03;9.13;;;10.60;53.40;;;;;;5012529;28;20666;-55
2021/04/30 01:56:23;;;;;;;12.90;9.83;;;10.50;53.40;;;;;;5028409;28;20623;-54
2021/04/30 01:58:50;;;;;;;11.60;10.60;;;10.50;53.60;;;;;;5051388;28;20664;-54
2021/04/30 02:01:18;;;;;;;12.53;11.37;;;10.50;53.60;;;;;;5038073;28;21295;-54
2021/04/30 02:03:45;;;;;;;10.17;9.03;;;10.50;53.70;;;;;;5032044;28;20611;-54
2021/04/30 02:06:11;;;;;;;11.47;10.47;;;10.50;53.60;;;;;;5031932;28;20676;-54
2021/04/30 02:08:38;;;;;;;12.00;10.83;;;10.40;53.60;;;;;;5031737;28;20667;-55
2021/04/30 02:11:05;;;;;;;11.03;10.03;;;10.40;54.00;;;;;;5048979;28;20675;-54
2021/04/30 02:13:32;;;;;;;9.67;8.70;;;10.40;54.30;;;;;;5052140;28;20630;-54
2021/04/30 02:15:59;;;;;;;12.87;10.93;;;10.40;54.40;;;;;;5050865;28;20626;-55
2021/04/30 02:18:26;;;;;;;10.73;9.73;;;10.40;54.20;;;;;;5051168;28;20719;-55
2021/04/30 02:20:53;;;;;;;10.97;10.03;;;10.40;54.30;;;;;;5051963;28;20626;-54
2021/04/30 02:23:20;;;;;;;12.57;11.47;;;10.40;54.20;;;;;;5051800;28;20675;-55
2021/04/30 02:25:47;;;;;;;11.00;9.90;;;10.40;54.40;;;;;;5051455;28;20630;-55
2021/04/30 02:28:14;;;;;;;14.70;10.57;;;10.30;54.60;;;;;;5051689;28;20658;-54
2021/04/30 02:30:42;;;;;;;11.30;10.40;;;10.30;54.70;;;;;;5050245;28;20695;-55
2021/04/30 02:33:09;;;;;;;11.70;10.53;;;10.30;55.20;;;;;;5051300;28;20692;-54
2021/04/30 02:35:37;;;;;;;13.97;12.67;;;10.30;54.90;;;;;;5051440;28;20641;-55
2021/04/30 02:38:04;;;;;;;12.57;11.37;;;10.30;54.90;;;;;;5050886;28;20658;-55
2021/04/30 02:40:31;;;;;;;11.43;10.37;;;10.30;54.90;;;;;;5051674;28;20637;-54
2021/04/30 02:42:59;;;;;;;14.57;13.20;;;10.30;55.00;;;;;;5051107;28;20657;-55
2021/04/30 02:45:26;;;;;;;11.27;10.27;;;10.30;55.10;;;;;;5034149;28;21121;-54
2021/04/30 02:47:54;;;;;;;11.73;10.50;;;10.30;55.50;;;;;;5031087;28;20662;-55
2021/04/30 02:50:21;;;;;;;12.43;11.23;;;10.30;55.10;;;;;;5031255;28;21183;-54
2021/04/30 02:52:48;;;;;;;11.50;10.40;;;10.20;55.30;;;;;;5031089;28;20634;-54
2021/04/30 02:55:16;;;;;;;12.63;11.43;;;10.20;55.30;;;;;;5031132;28;20681;-55
2021/04/30 02:57:43;;;;;;;14.30;12.83;;;10.20;55.50;;;;;;5030708;28;20740;-54
2021/04/30 03:00:11;;;;;;;14.80;13.33;;;10.10;55.60;;;;;;5049040;28;20634;-54
2021/04/30 03:02:37;;;;;;;13.33;12.03;;;10.10;55.70;;;;;;5051129;28;20665;-54
2021/04/30 03:05:06;;;;;;;14.30;11.80;;;10.10;56.10;;;;;;5050976;28;20691;-54
2021/04/30 03:07:33;;;;;;;14.03;12.67;;;10.10;56.30;;;;;;5050601;28;21011;-54
2021/04/30 03:09:59;;;;;;;15.47;14.03;;;10.10;56.50;;;;;;5050753;28;20638;-54
2021/04/30 03:12:26;;;;;;;14.37;12.87;;;10.10;56.70;;;;;;5050575;28;20626;-54
2021/04/30 03:14:53;;;;;;;13.83;12.53;;;10.10;56.70;;;;;;5050338;28;20625;-54
2021/04/30 03:17:20;;;;;;;13.43;12.00;;;10.00;56.50;;;;;;5034841;28;20665;-55
2021/04/30 03:19:46;;;;;;;14.23;12.80;;;10.00;56.60;;;;;;5050726;28;20660;-53
2021/04/30 03:22:14;;;;;;;12.60;11.40;;;9.90;57.40;;;;;;5050850;28;20693;-53
2021/04/30 03:24:41;;;;;;;12.10;11.00;;;9.90;57.60;;;;;;5051241;28;20788;-53
2021/04/30 03:27:07;;;;;;;13.60;12.20;;;9.90;57.70;;;;;;5050230;28;20666;-53
2021/04/30 03:29:34;;;;;;;13.60;12.20;;;10.00;57.00;;;;;;5051176;28;20687;-53
2021/04/30 03:32:01;;;;;;;14.10;12.70;;;9.90;57.90;;;;;;5050099;28;20684;-53
2021/04/30 03:34:27;;;;;;;13.77;12.50;;;9.90;58.20;;;;;;5050811;28;21007;-53
2021/04/30 03:36:54;;;;;;;14.47;12.53;;;9.90;58.20;;;;;;5050811;28;20662;-54
2021/04/30 03:39:22;;;;;;;14.43;13.13;;;9.80;58.30;;;;;;5050561;28;20627;-54
2021/04/30 03:41:49;;;;;;;13.37;12.07;;;9.90;58.40;;;;;;5050137;28;20672;-55
2021/04/30 03:44:15;;;;;;;15.63;11.90;;;9.90;58.60;;;;;;5050986;28;20632;-54
2021/04/30 03:46:42;;;;;;;14.80;12.57;;;9.90;58.60;;;;;;5050603;28;20661;-55
2021/04/30 03:49:09;;;;;;;13.50;12.23;;;9.90;58.80;;;;;;5050312;28;20637;-55
2021/04/30 03:51:35;;;;;;;13.80;12.30;;;9.90;59.30;;;;;;5050823;28;20671;-55
2021/04/30 03:54:02;;;;;;;14.07;12.67;;;9.80;59.30;;;;;;5050841;28;20629;-54
2021/04/30 03:56:30;;;;;;;14.30;13.00;;;9.80;59.60;;;;;;5052244;28;21198;-54
2021/04/30 03:58:57;;;;;;;14.83;13.43;;;9.80;59.70;;;;;;5053388;28;20628;-55
2021/04/30 04:01:23;;;;;;;20.33;14.80;;;9.70;59.80;;;;;;5054322;28;20628;-55
2021/04/30 04:03:51;;;;;;;12.37;11.07;;;9.70;60.40;;;;;;5054243;28;20694;-54
2021/04/30 04:06:18;;;;;;;14.10;12.70;;;9.70;60.70;;;;;;5054293;28;20625;-55
2021/04/30 04:08:44;;;;;;;12.03;10.77;;;9.70;61.20;;;;;;5054048;28;20626;-54
2021/04/30 04:11:11;;;;;;;14.67;12.93;;;9.70;61.70;;;;;;5054655;28;20655;-54
2021/04/30 04:13:38;;;;;;;13.07;11.67;;;9.70;62.00;;;;;;5054379;28;21074;-54
2021/04/30 04:16:05;;;;;;;11.67;10.47;;;9.70;62.10;;;;;;5053301;28;20637;-53
2021/04/30 04:18:32;;;;;;;11.50;10.33;;;9.60;62.20;;;;;;5053692;28;20656;-54
2021/04/30 04:20:59;;;;;;;11.33;10.30;;;9.60;62.40;;;;;;5053934;28;20630;-55
2021/04/30 04:23:26;;;;;;;12.00;10.93;;;9.60;63.00;;;;;;5053723;28;20668;-54
2021/04/30 04:25:52;;;;;;;11.20;10.20;;;9.60;63.40;;;;;;5053524;28;20629;-52
2021/04/30 04:28:19;;;;;;;12.67;11.37;;;9.50;63.50;;;;;;5053353;28;21045;-54
2021/04/30 04:30:47;;;;;;;13.73;12.40;;;9.50;63.80;;;;;;5053433;28;20625;-54
2021/04/30 04:33:14;;;;;;;13.67;12.37;;;9.50;64.30;;;;;;5043118;28;21224;-54
2021/04/30 04:35:40;;;;;;;13.60;12.30;;;9.50;64.70;;;;;;5033323;28;20627;-52
2021/04/30 04:38:07;;;;;;;14.50;13.10;;;9.60;65.50;;;;;;5020191;28;20665;-53
2021/04/30 04:40:34;;;;;;;13.87;11.90;;;9.60;65.40;;;;;;5053823;28;20619;-53
2021/04/30 04:43:01;;;;;;;13.77;12.47;;;9.50;65.30;;;;;;5053043;28;21055;-52
2021/04/30 04:45:27;;;;;;;16.13;14.33;;;9.50;65.40;;;;;;5051947;28;20645;-52
2021/04/30 04:47:55;;;;;;;18.67;14.80;;;9.50;66.00;;;;;;5053094;28;20699;-53
2021/04/30 04:50:22;;;;;;;16.63;14.90;;;9.50;66.30;;;;;;5043758;28;20638;-53
2021/04/30 04:52:48;;;;;;;14.70;13.30;;;9.60;65.80;;;;;;5033596;28;20631;-52
2021/04/30 04:55:17;;;;;;;16.00;14.30;;;9.60;65.50;;;;;;5050303;28;20686;-53
2021/04/30 04:57:44;;;;;;;18.50;14.80;;;9.70;65.00;;;;;;5052593;28;20723;-53
2021/04/30 05:00:12;;;;;;;13.77;12.33;;;9.70;64.60;;;;;;5053028;28;21064;-52
2021/04/30 05:02:38;;;;;;;13.83;12.40;;;9.70;64.10;;;;;;5053051;28;20701;-54
2021/04/30 05:05:07;;;;;;;16.20;13.87;;;9.80;63.80;;;;;;5052650;28;20695;-54
2021/04/30 05:07:34;;;;;;;15.77;14.17;;;9.80;63.70;;;;;;5051219;28;20645;-53
2021/04/30 05:10:01;;;;;;;17.73;14.77;;;9.80;63.80;;;;;;5052783;28;20684;-54
2021/04/30 05:12:28;;;;;;;15.77;14.27;;;9.80;64.20;;;;;;5053266;28;20636;-53
2021/04/30 05:14:54;;;;;;;16.37;14.87;;;9.80;64.50;;;;;;5050632;28;21130;-55
2021/04/30 05:17:21;;;;;;;14.77;13.30;;;9.90;64.70;;;;;;5032227;28;20665;-54
2021/04/30 05:19:48;;;;;;;16.87;14.63;;;9.90;65.50;;;;;;5034079;28;21197;-54
2021/04/30 05:22:16;;;;;;;17.30;14.10;;;9.90;64.10;;;;;;5040808;28;20654;-53
2021/04/30 05:24:43;;;;;;;18.37;15.30;;;10.00;62.30;;;;;;5057443;28;20733;-54
2021/04/30 05:27:10;;;;;;;16.20;14.50;;;10.00;62.40;;;;;;5048460;28;20664;-53
2021/04/30 05:29:39;;;;;;;15.30;13.70;;;10.00;62.80;;;;;;5051582;28;20618;-54
2021/04/30 05:32:06;;;;;;;15.23;13.83;;;10.00;63.00;;;;;;5056425;28;21174;-53
2021/04/30 05:34:33;;;;;;;17.57;15.70;;;10.00;62.70;;;;;;5051616;28;20683;-53
2021/04/30 05:37:00;;;;;;;16.90;15.20;;;10.00;62.50;;;;;;5052001;28;20653;-53
2021/04/30 05:39:28;;;;;;;17.50;15.70;;;10.00;62.20;;;;;;5051317;28;20622;-54
2021/04/30 05:41:55;;;;;;;16.47;14.60;;;10.00;61.70;;;;;;5051274;28;20662;-53
2021/04/30 05:44:22;;;;;;;15.70;14.20;;;10.00;61.60;;;;;;5052822;28;20991;-53
2021/04/30 05:46:48;;;;;;;17.37;15.53;;;10.10;61.90;;;;;;5051253;28;20661;-53
2021/04/30 05:49:15;;;;;;;15.87;14.30;;;10.10;61.80;;;;;;5051358;28;20622;-53
2021/04/30 05:51:42;;;;;;;16.13;14.53;;;10.10;60.60;;;;;;5050988;28;20622;-53
2021/04/30 05:54:09;;;;;;;16.97;15.17;;;10.20;60.40;;;;;;5051434;28;20679;-53
2021/04/30 05:56:36;;;;;;;21.10;17.60;;;10.20;60.40;;;;;;5050290;28;20658;-52
2021/04/30 05:59:04;;;;;;;17.30;15.17;;;10.20;60.80;;;;;;5051403;28;20630;-51
2021/04/30 06:01:30;;;;;;;18.73;16.93;;;10.30;61.00;;;;;;5050807;28;20696;-52
2021/04/30 06:03:57;;;;;;;15.43;14.00;;;10.30;61.00;;;;;;5050642;28;20650;-53
2021/04/30 06:06:24;;;;;;;16.47;14.73;;;10.40;60.70;;;;;;5050697;28;20648;-52
2021/04/30 06:08:50;;;;;;;15.93;14.53;;;10.40;60.30;;;;;;5050978;28;20629;-51
2021/04/30 06:11:17;;;;;;;16.77;15.07;;;10.50;59.90;;;;;;5050990;28;20688;-52
2021/04/30 06:13:45;;;;;;;17.30;15.40;;;10.50;59.20;;;;;;5050582;28;21143;-52
2021/04/30 06:16:12;;;;;;;19.60;17.33;;;10.50;59.20;;;;;;5050206;28;20625;-52
2021/04/30 06:18:38;;;;;;;17.20;15.60;;;10.60;59.00;;;;;;5050264;28;21118;-53
2021/04/30 06:21:05;;;;;;;18.53;13.50;;;10.60;59.00;;;;;;5054159;28;20691;-53
2021/04/30 06:23:32;;;;;;;16.93;15.27;;;10.70;58.60;;;;;;5050673;28;20668;-53
2021/04/30 06:25:58;;;;;;;17.17;15.50;;;10.70;59.10;;;;;;5050597;28;20638;-53
2021/04/30 06:28:25;;;;;;;16.63;15.00;;;10.80;58.60;;;;;;5052730;28;20722;-53
2021/04/30 06:30:55;;;;;;;16.60;15.07;;;10.90;58.60;;;;;;5056111;28;21195;-53
2021/04/30 06:33:22;;;;;;;16.83;15.27;;;11.00;57.90;;;;;;5050176;28;20623;-52
2021/04/30 06:35:49;;;;;;;16.43;14.93;;;11.00;57.60;;;;;;5050828;28;20618;-53
2021/04/30 06:38:16;;;;;;;15.93;14.50;;;11.00;57.60;;;;;;5049848;28;21094;-53
2021/04/30 06:40:42;;;;;;;17.97;16.10;;;11.10;57.20;;;;;;5049728;28;20720;-53
2021/04/30 06:43:09;;;;;;;15.83;14.33;;;11.10;57.30;;;;;;5050600;28;20703;-53
2021/04/30 06:45:36;;;;;;;18.57;16.80;;;11.10;57.10;;;;;;5032051;28;20657;-52
2021/04/30 06:48:05;;;;;;;18.60;16.33;;;11.10;57.30;;;;;;5030641;28;20717;-53
2021/04/30 06:50:32;;;;;;;15.27;13.87;;;11.20;57.70;;;;;;5050451;28;20631;-54
2021/04/30 06:52:58;;;;;;;15.73;14.13;;;11.30;57.60;;;;;;5050208;28;20680;-53
2021/04/30 06:55:25;;;;;;;17.10;13.83;;;11.40;57.30;;;;;;5050154;28;20634;-55
2021/04/30 06:57:52;;;;;;;17.90;15.40;;;11.50;56.30;;;;;;5049300;28;20670;-53
2021/04/30 07:00:19;;;;;;;17.40;15.60;;;11.50;56.40;;;;;;5050115;28;20658;-52
2021/04/30 07:02:46;;;;;;;17.37;15.50;;;11.60;56.30;;;;;;5050237;28;20704;-53
2021/04/30 07:05:14;;;;;;;16.77;15.10;;;11.70;56.40;;;;;;5050516;28;20669;-53
2021/04/30 07:07:41;;;;;;;16.77;14.37;;;11.80;56.20;;;;;;5050003;28;20730;-52
2021/04/30 07:10:08;;;;;;;18.43;15.20;;;11.90;55.90;;;;;;5050014;28;20701;-52
2021/04/30 07:12:35;;;;;;;18.13;16.30;;;12.00;56.00;;;;;;5049297;28;20625;-52
2021/04/30 07:15:02;;;;;;;17.73;16.23;;;12.00;55.80;;;;;;5049440;28;20626;-52
2021/04/30 07:17:29;;;;;;;18.10;16.20;;;12.10;55.70;;;;;;5048531;28;20658;-52
2021/04/30 07:19:56;;;;;;;20.40;16.00;;;12.00;55.50;;;;;;5051335;28;21185;-52
2021/04/30 07:22:23;;;;;;;17.97;16.40;;;12.00;55.80;;;;;;5052109;28;20648;-52
2021/04/30 07:24:50;;;;;;;18.03;16.13;;;12.00;56.00;;;;;;5049790;28;20654;-52
2021/04/30 07:27:18;;;;;;;17.73;16.17;;;12.10;56.10;;;;;;5049275;28;21205;-52
2021/04/30 07:29:44;;;;;;;18.97;17.07;;;12.20;55.40;;;;;;5031496;28;21165;-52
2021/04/30 07:32:11;;;;;;;16.70;15.20;;;12.20;55.00;;;;;;5052983;28;21096;-52
2021/04/30 07:34:38;;;;;;;17.67;16.03;;;12.30;54.60;;;;;;5054135;28;20633;-52
2021/04/30 07:37:05;;;;;;;17.77;16.07;;;12.30;53.80;;;;;;5053834;28;21203;-51
2021/04/30 07:39:33;;;;;;;17.80;15.57;;;12.40;52.80;;;;;;5053589;28;20633;-53
2021/04/30 07:42:00;;;;;;;18.60;16.27;;;12.50;52.80;;;;;;5053515;28;20621;-52
2021/04/30 07:44:27;;;;;;;19.07;17.13;;;12.50;52.30;;;;;;5053345;28;20681;-52
2021/04/30 07:46:53;;;;;;;18.83;17.07;;;12.60;52.10;;;;;;5053797;28;21210;-52
2021/04/30 07:49:20;;;;;;;17.73;16.23;;;12.60;52.20;;;;;;5053777;28;20676;-52
2021/04/30 07:51:47;;;;;;;19.60;17.70;;;12.70;52.40;;;;;;5053703;28;20630;-52
2021/04/30 07:54:13;;;;;;;19.63;17.83;;;12.70;52.60;;;;;;5053466;28;20626;-52
2021/04/30 07:56:41;;;;;;;18.27;16.40;;;12.70;52.70;;;;;;5053246;28;20670;-52
2021/04/30 07:59:08;;;;;;;21.37;18.97;;;12.80;52.40;;;;;;5053548;28;20630;-52
2021/04/30 08:01:35;;;;;;;19.80;18.10;;;12.80;51.90;;;;;;5054295;28;20656;-52
2021/04/30 08:04:02;;;;;;;16.70;15.10;;;12.70;51.80;;;;;;5053270;28;20711;-52
2021/04/30 08:06:29;;;;;;;18.63;16.33;;;12.70;52.00;;;;;;5054095;28;21449;-52
2021/04/30 08:08:56;;;;;;;20.13;17.90;;;12.60;51.80;;;;;;5052506;28;20633;-52
2021/04/30 08:11:22;;;;;;;18.40;16.50;;;12.70;51.70;;;;;;5053089;28;21022;-53
2021/04/30 08:13:50;;;;;;;20.97;18.80;;;12.70;51.90;;;;;;5048077;28;21085;-54
2021/04/30 08:16:17;;;;;;;18.80;16.50;;;12.80;52.00;;;;;;5049737;28;20637;-53
2021/04/30 08:18:43;;;;;;;16.80;15.07;;;12.80;51.50;;;;;;5046889;28;20626;-53
2021/04/30 08:21:10;;;;;;;17.57;15.73;;;12.80;51.50;;;;;;5044720;28;21041;-54
2021/04/30 08:23:37;;;;;;;17.80;15.90;;;12.90;51.00;;;;;;5052777;28;20668;-54
2021/04/30 08:26:04;;;;;;;18.80;16.47;;;12.90;50.90;;;;;;5052178;28;21240;-53
2021/04/30 08:28:31;;;;;;;18.27;15.60;;;13.00;51.00;;;;;;5052611;28;21280;-53
2021/04/30 08:30:59;;;;;;;18.30;16.60;;;13.00;50.90;;;;;;5048490;28;20993;-54
2021/04/30 08:33:26;;;;;;;20.70;16.43;;;13.10;50.70;;;;;;5045982;28;20691;-53
2021/04/30 08:35:53;;;;;;;20.70;18.00;;;13.10;50.20;;;;;;5052794;28;20630;-53
2021/04/30 08:38:20;;;;;;;16.67;15.07;;;13.10;50.00;;;;;;5040921;28;21226;-54
2021/04/30 08:40:47;;;;;;;17.83;16.07;;;13.10;50.10;;;;;;5022899;28;20626;-53
2021/04/30 08:43:16;;;;;;;19.17;17.37;;;13.10;50.50;;;;;;5051597;28;20662;-54
2021/04/30 08:45:43;;;;;;;18.83;17.03;;;13.00;49.60;;;;;;5048685;28;20644;-53
2021/04/30 08:48:14;;;;;;;17.60;15.87;;;12.70;49.80;;;;;;5052596;28;20698;-53
2021/04/30 08:50:41;;;;;;;18.87;16.70;;;12.70;50.60;;;;;;5052583;28;20629;-53
2021/04/30 08:53:08;;;;;;;18.63;17.03;;;12.50;50.70;;;;;;5052838;28;20670;-53
2021/04/30 08:55:37;;;;;;;20.03;17.93;;;12.50;52.00;;;;;;5052392;28;20686;-53
2021/04/30 08:58:05;;;;;;;18.77;16.77;;;12.60;51.90;;;;;;5051469;28;20657;-53
2021/04/30 09:00:32;;;;;;;17.70;16.10;;;12.50;51.00;;;;;;5051917;28;20621;-53
2021/04/30 09:02:59;;;;;;;18.17;16.27;;;12.50;51.30;;;;;;5068264;28;20661;-52
2021/04/30 09:05:28;;;;;;;19.37;17.47;;;12.50;51.50;;;;;;5052531;28;20618;-53
2021/04/30 09:07:55;;;;;;;18.43;16.30;;;12.50;51.20;;;;;;5051520;28;20690;-53
2021/04/30 09:10:22;;;;;;;21.03;17.47;;;12.50;50.90;;;;;;5051853;28;20656;-54
2021/04/30 09:13:03;;;;;;;21.70;17.50;;;12.60;51.20;;;;;;5052285;28;20670;-53
2021/04/30 09:15:29;;;;;;;17.33;15.87;;;12.80;51.00;;;;;;5052239;28;20994;-54
2021/04/30 09:18:15;;;;;;;17.93;16.20;;;12.90;50.80;;;;;;5051712;28;21067;-54
2021/04/30 09:20:44;;;;;;;19.47;17.37;;;13.00;50.70;;;;;;5053745;28;20703;-54
2021/04/30 09:23:39;;;;;;;20.27;18.37;;;13.10;50.40;;;;;;5052014;28;20650;-54
2021/04/30 09:26:21;;;;;;;18.13;16.37;;;13.10;50.50;;;;;;5051252;28;21252;-53
2021/04/30 09:29:01;;;;;;;19.80;17.90;;;13.00;50.60;;;;;;5045492;28;20679;-53
2021/04/30 09:31:34;;;;;;;23.67;18.27;;;12.90;50.40;;;;;;5051339;28;20691;-53
2021/04/30 09:34:15;;;;;;;22.80;19.00;;;12.90;50.60;;;;;;5047244;28;20614;-53
2021/04/30 09:36:55;;;;;;;20.13;18.00;;;12.80;51.00;;;;;;5050823;28;20711;-53
2021/04/30 09:39:22;;;;;;;20.13;18.10;;;12.80;51.30;;;;;;5051128;28;20629;-53
2021/04/30 09:42:04;;;;;;;19.30;16.87;;;12.80;51.40;;;;;;5051505;28;20632;-53
2021/04/30 09:44:35;;;;;;;20.87;18.53;;;12.80;50.80;;;;;;5057716;28;21233;-53
2021/04/30 09:47:15;;;;;;;20.27;18.30;;;12.70;50.60;;;;;;5056933;28;20711;-54
2021/04/30 09:49:42;;;;;;;21.70;17.63;;;12.70;50.90;;;;;;5060035;28;21052;-53
2021/04/30 09:52:10;;;;;;;20.10;17.90;;;12.80;51.10;;;;;;5051078;28;20623;-53
2021/04/30 09:54:37;;;;;;;18.53;16.63;;;12.80;51.10;;;;;;5052035;28;20695;-54
2021/04/30 09:57:07;;;;;;;17.57;15.87;;;12.80;51.00;;;;;;5033166;28;20657;-54
2021/04/30 09:59:34;;;;;;;18.90;17.20;;;12.90;50.60;;;;;;5033170;28;20630;-54
2021/04/30 10:02:11;;;;;;;20.27;18.17;;;13.00;50.30;;;;;;5051936;28;21310;-54
2021/04/30 10:04:39;;;;;;;21.70;18.30;;;13.00;50.00;;;;;;5051514;28;20658;-54
2021/04/30 10:07:06;;;;;;;17.47;14.20;;;13.10;49.80;;;;;;5050971;28;20697;-54
2021/04/30 10:09:35;;;;;;;17.37;15.37;;;13.10;49.30;;;;;;5050828;28;20831;-54
2021/04/30 10:12:21;;;;;;;18.67;16.90;;;13.20;49.80;;;;;;5050488;28;20710;-53
2021/04/30 10:14:48;;;;;;;19.90;17.60;;;13.40;49.80;;;;;;5051253;28;20653;-53
2021/04/30 10:17:15;;;;;;;16.80;15.20;;;13.60;49.50;;;;;;5050225;28;20654;-53
2021/04/30 10:19:43;;;;;;;17.00;15.37;;;13.80;48.90;;;;;;5051231;28;21078;-55
2021/04/30 10:22:19;;;;;;;17.17;15.47;;;14.10;48.20;;;;;;5055906;28;20630;-54
2021/04/30 10:24:49;;;;;;;19.20;17.50;;;14.30;47.60;;;;;;5050545;28;20681;-54
2021/04/30 10:27:17;;;;;;;18.40;16.70;;;14.50;47.20;;;;;;5050017;28;20662;-53
2021/04/30 10:29:49;;;;;;;16.97;15.43;;;14.70;47.10;;;;;;5051095;28;20629;-53
2021/04/30 10:32:16;;;;;;;17.47;15.87;;;14.90;46.90;;;;;;5051130;28;21042;-54
2021/04/30 10:34:44;;;;;;;19.70;17.97;;;15.00;46.30;;;;;;5050389;28;21241;-53
2021/04/30 10:37:11;;;;;;;17.83;16.33;;;15.20;46.00;;;;;;5050483;28;20650;-53
2021/04/30 10:39:38;;;;;;;20.70;16.97;;;15.30;45.50;;;;;;5050661;28;20630;-55
2021/04/30 10:42:17;;;;;;;17.90;16.00;;;15.30;45.20;;;;;;5050909;28;20618;-54
2021/04/30 10:44:44;;;;;;;18.63;16.73;;;15.30;44.90;;;;;;5045913;28;20657;-53
2021/04/30 10:47:25;;;;;;;20.40;17.07;;;15.30;44.50;;;;;;5050327;28;20658;-54
2021/04/30 10:50:15;;;;;;;19.23;17.40;;;15.30;45.10;;;;;;5050776;28;21049;-54
2021/04/30 10:52:42;;;;;;;16.70;15.07;;;15.30;44.80;;;;;;5050218;28;20630;-54
2021/04/30 10:55:09;;;;;;;18.83;16.07;;;15.20;45.10;;;;;;5050290;28;20615;-53
2021/04/30 10:57:54;;;;;;;18.27;16.43;;;15.10;45.10;;;;;;5050282;28;20676;-54
2021/04/30 11:00:25;;;;;;;17.27;15.77;;;14.90;45.20;;;;;;5050173;28;20724;-54
2021/04/30 11:03:15;;;;;;;17.47;15.83;;;14.80;45.10;;;;;;5049986;28;21135;-53
2021/04/30 11:05:59;;;;;;;15.70;14.30;;;14.80;44.90;;;;;;5050163;28;20634;-53
2021/04/30 11:08:48;;;;;;;17.70;15.90;;;14.70;44.80;;;;;;5050210;28;21187;-53
2021/04/30 11:11:16;;;;;;;16.97;14.40;;;14.60;44.70;;;;;;5049108;28;21154;-54
2021/04/30 11:13:58;;;;;;;16.57;15.07;;;14.50;44.90;;;;;;5050142;28;20614;-53
2021/04/30 11:16:39;;;;;;;18.13;16.40;;;14.60;45.30;;;;;;5048129;28;20630;-54
2021/04/30 11:19:06;;;;;;;20.47;17.53;;;14.60;45.40;;;;;;5030920;28;20626;-53
2021/04/30 11:21:43;;;;;;;15.87;14.40;;;14.70;45.40;;;;;;5052384;28;20618;-52
2021/04/30 11:24:35;;;;;;;16.27;14.77;;;14.70;45.00;;;;;;5049830;28;20650;-53
2021/04/30 11:27:30;;;;;;;20.07;17.77;;;14.70;45.00;;;;;;5047309;28;20666;-53
2021/04/30 11:30:17;;;;;;;17.90;14.30;;;14.70;45.20;;;;;;5050400;28;20630;-53
2021/04/30 11:32:49;;;;;;;19.80;15.20;;;14.80;45.20;;;;;;5049910;28;20695;-53
2021/04/30 11:35:16;;;;;;;13.97;12.73;;;14.90;45.10;;;;;;5051787;28;20622;-53
2021/04/30 11:37:43;;;;;;;11.57;10.57;;;14.90;44.10;;;;;;5051889;28;20711;-54
2021/04/30 11:40:12;;;;;;;12.70;11.67;;;14.90;42.60;;;;;;5043594;28;20688;-54
2021/04/30 11:42:39;;;;;;;15.00;13.60;;;14.90;42.60;;;;;;5038653;28;20995;-54
2021/04/30 11:45:07;;;;;;;15.53;14.13;;;14.90;42.70;;;;;;5040288;28;20655;-53
2021/04/30 11:47:36;;;;;;;14.53;13.30;;;14.80;42.90;;;;;;5029810;28;20717;-53
2021/04/30 11:50:03;;;;;;;14.87;13.37;;;14.70;43.20;;;;;;5030163;28;21242;-53
2021/04/30 11:52:32;;;;;;;13.20;11.90;;;14.70;43.50;;;;;;5030963;28;20638;-53
2021/04/30 11:55:02;;;;;;;13.63;12.40;;;14.70;43.40;;;;;;5029899;28;21247;-54
2021/04/30 11:57:29;;;;;;;13.80;12.60;;;14.80;43.40;;;;;;5029635;28;20670;-54
2021/04/30 11:59:56;;;;;;;12.47;11.40;;;14.70;43.30;;;;;;5029592;28;20680;-53
2021/04/30 12:02:25;;;;;;;12.60;11.60;;;14.60;43.50;;;;;;5030072;28;20665;-53
2021/04/30 12:04:54;;;;;;;12.63;11.33;;;14.50;43.30;;;;;;5029700;28;20654;-53
2021/04/30 12:07:22;;;;;;;12.23;11.13;;;14.50;43.40;;;;;;5038678;28;20684;-53
2021/04/30 12:09:49;;;;;;;14.03;12.60;;;14.50;43.60;;;;;;5048149;28;20630;-54
2021/04/30 12:12:21;;;;;;;14.13;12.13;;;14.50;44.00;;;;;;5049241;28;20684;-53
2021/04/30 12:14:50;;;;;;;12.90;11.60;;;14.50;44.00;;;;;;5030306;28;20614;-52
2021/04/30 12:17:30;;;;;;;12.70;11.50;;;14.50;44.00;;;;;;5039590;28;20669;-53
2021/04/30 12:20:09;;;;;;;15.07;13.60;;;14.50;44.10;;;;;;5056811;28;20658;-54
2021/04/30 12:22:47;;;;;;;13.73;12.50;;;14.60;44.20;;;;;;5050314;28;20622;-53
2021/04/30 12:25:19;;;;;;;13.53;12.30;;;14.50;44.00;;;;;;5041772;28;21014;-54
2021/04/30 12:27:46;;;;;;;12.63;11.53;;;14.50;43.80;;;;;;5051860;28;20657;-54
2021/04/30 12:30:13;;;;;;;14.93;13.73;;;14.60;43.80;;;;;;5051540;28;20965;-53
2021/04/30 12:32:47;;;;;;;15.50;13.90;;;14.60;43.90;;;;;;5047908;28;20744;-55
2021/04/30 12:35:16;;;;;;;16.17;14.00;;;14.70;43.50;;;;;;5052944;28;20621;-55
2021/04/30 12:37:42;;;;;;;19.83;14.27;;;14.80;43.40;;;;;;5052476;28;20682;-53